Sioux Gateway Airport

Current Flights

Info
Name: Sioux Gateway Airport
Identifier:  SUX/KSUX
Local Time:  23. May 22:35
City
Flights per Day
12 flights
Distance: 849km (527mi)
Punctuality
71% (3 flights per day delayed)
Delay Average: 58 minutes
Current Weather
 12 C (Humidity: 93%)
  8kt (14km/h / 9mph) from 270°
24 knots Gusts

  Scattered clouds at 2,500 feet (762 meter)
  Broken clouds at 3,900 feet (1,188 meter)
  Overcast at 7,000 feet (2,133 meter)
  0km (0 mi.)
 Mist
 METAR KSUX 240256Z AUTO 27008G24KT 1 3/4SM R31/6000VP6000FT +TSRA BR SCT025 BKN039 OVC070 12/11 A3015 RMK AO2 LTG DSNT ALQDS P0008 T01220106

Current Delays

Departures
N/A
Arrivals
N/A

Destinations

Top Destinations
Airport Flights
per week
Seats
per week
  Chicago (ORD) 35 2,002 5 286
  Dallas (DFW) 14 364 2 52
  Guymon (GUY) <1 - 0 0
  Grand Island (GRI) <1 - 0 0

Airlines & Planes

Top Airlines
Airline Flights
per Day
Seats
per Day
  Envoy 5 221
  Nolinor Aviation 1 -
  Trans States Airlines 1 55
  Britt Airways <1 35
  Novair <1 -
  American Eagle <1 27
Jet Charter Inc ( Franklin Lakes Nj ) <1 -
  American Airlines <1 -
Top Plane Types
Manufacturer Model Flights Seats
Embraer ERJ145 6.1/day 306/day 306.6666666666667
Embraer ERJ135 1.6/day 32/day 32.266666666666666
Cessna C560 0.7/day - 0
Beech B300 Super King Air 0.6/day - 0
Cirrus SR22 0.3/day - 0
Cessna C68A 0.3/day - -0.26666666666666666
Cessna C25B 0.2/day - 0
Boeing B737-400 0.1/day 20/day 20
Embraer Phenom 300 0.1/day - -0.2